sensor_id;sensor_type;location;lat;lon;timestamp;pressure;altitude;pressure_sealevel;temperature;humidity
73105;BME280;61296;50.526;30.792;2024-03-02T00:00:21;100086.81;;;0.46;97.75
73105;BME280;61296;50.526;30.792;2024-03-02T00:15:55;100132.00;;;0.64;99.87
73105;BME280;61296;50.526;30.792;2024-03-02T00:31:29;100121.03;;;0.55;100.00
73105;BME280;61296;50.526;30.792;2024-03-02T00:47:02;100097.75;;;0.22;100.00
73105;BME280;61296;50.526;30.792;2024-03-02T01:02:35;100105.72;;;0.32;100.00
73105;BME280;61296;50.526;30.792;2024-03-02T01:18:08;100116.88;;;0.44;100.00
73105;BME280;61296;50.526;30.792;2024-03-02T01:33:41;100112.88;;;0.42;100.00
73105;BME280;61296;50.526;30.792;2024-03-02T01:49:13;100112.72;;;0.33;100.00
73105;BME280;61296;50.526;30.792;2024-03-02T02:04:46;100110.09;;;0.28;100.00
73105;BME280;61296;50.526;30.792;2024-03-02T02:20:19;100106.41;;;-0.19;100.00
73105;BME280;61296;50.526;30.792;2024-03-02T02:35:52;100068.66;;;-0.48;100.00
73105;BME280;61296;50.526;30.792;2024-03-02T02:51:25;100107.50;;;-0.44;100.00
73105;BME280;61296;50.526;30.792;2024-03-02T03:06:58;100124.00;;;-0.45;100.00
73105;BME280;61296;50.526;30.792;2024-03-02T03:22:32;100115.44;;;-0.76;100.00
73105;BME280;61296;50.526;30.792;2024-03-02T03:38:05;100084.00;;;-0.91;100.00
73105;BME280;61296;50.526;30.792;2024-03-02T03:53:38;100044.69;;;-1.02;100.00
73105;BME280;61296;50.526;30.792;2024-03-02T04:09:11;100085.13;;;-0.97;100.00
73105;BME280;61296;50.526;30.792;2024-03-02T04:24:44;100084.38;;;-1.03;100.00
73105;BME280;61296;50.526;30.792;2024-03-02T04:40:17;100070.72;;;-1.17;100.00
73105;BME280;61296;50.526;30.792;2024-03-02T04:55:50;100054.28;;;-1.49;100.00
73105;BME280;61296;50.526;30.792;2024-03-02T05:11:41;99983.41;;;-1.89;100.00
73105;BME280;61296;50.526;30.792;2024-03-02T05:27:17;100065.72;;;-0.99;100.00
73105;BME280;61296;50.526;30.792;2024-03-02T05:42:50;100046.47;;;-0.69;100.00
73105;BME280;61296;50.526;30.792;2024-03-02T05:58:23;100027.31;;;-0.48;100.00
73105;BME280;61296;50.526;30.792;2024-03-02T06:14:14;100072.00;;;0.06;100.00
73105;BME280;61296;50.526;30.792;2024-03-02T06:29:47;100089.97;;;0.34;100.00
73105;BME280;61296;50.526;30.792;2024-03-02T06:45:21;100105.75;;;1.11;100.00
73105;BME280;61296;50.526;30.792;2024-03-02T07:00:54;100100.56;;;1.42;98.06
73105;BME280;61296;50.526;30.792;2024-03-02T07:16:20;100092.34;;;1.74;95.58
73105;BME280;61296;50.526;30.792;2024-03-02T07:32:06;100098.66;;;2.34;93.26
73105;BME280;61296;50.526;30.792;2024-03-02T07:47:39;100051.16;;;2.67;91.04
73105;BME280;61296;50.526;30.792;2024-03-02T08:03:13;100068.00;;;3.09;87.36
73105;BME280;61296;50.526;30.792;2024-03-02T08:18:51;100006.91;;;2.44;88.16
73105;BME280;61296;50.526;30.792;2024-03-02T08:34:24;100065.19;;;2.60;88.34
73105;BME280;61296;50.526;30.792;2024-03-02T08:49:57;100048.50;;;3.07;87.37
73105;BME280;61296;50.526;30.792;2024-03-02T09:05:30;100050.09;;;3.47;83.30
73105;BME280;61296;50.526;30.792;2024-03-02T09:21:03;99997.31;;;3.48;79.88
73105;BME280;61296;50.526;30.792;2024-03-02T09:36:40;99955.44;;;3.75;76.89
73105;BME280;61296;50.526;30.792;2024-03-02T09:52:14;100042.00;;;4.69;72.67
73105;BME280;61296;50.526;30.792;2024-03-02T10:08:02;100007.44;;;4.43;72.55
73105;BME280;61296;50.526;30.792;2024-03-02T10:23:36;99956.69;;;4.30;74.48
73105;BME280;61296;50.526;30.792;2024-03-02T10:39:12;100016.53;;;4.56;72.29
73105;BME280;61296;50.526;30.792;2024-03-02T10:54:46;100029.00;;;4.83;73.03
73105;BME280;61296;50.526;30.792;2024-03-02T11:10:19;99983.94;;;4.85;72.81
73105;BME280;61296;50.526;30.792;2024-03-02T11:25:53;100010.22;;;4.90;73.01
73105;BME280;61296;50.526;30.792;2024-03-02T11:41:26;100003.19;;;5.18;72.88
73105;BME280;61296;50.526;30.792;2024-03-02T11:57:02;99971.38;;;5.31;72.56
73105;BME280;61296;50.526;30.792;2024-03-02T12:12:35;99883.91;;;5.15;70.29
73105;BME280;61296;50.526;30.792;2024-03-02T12:28:10;99923.44;;;5.72;69.21
73105;BME280;61296;50.526;30.792;2024-03-02T12:43:43;99962.84;;;5.83;68.57
73105;BME280;61296;50.526;30.792;2024-03-02T12:59:24;99880.75;;;5.55;69.69
73105;BME280;61296;50.526;30.792;2024-03-02T13:14:59;99834.03;;;5.15;71.61
73105;BME280;61296;50.526;30.792;2024-03-02T13:30:32;99875.00;;;5.27;70.73
73105;BME280;61296;50.526;30.792;2024-03-02T13:46:09;99911.16;;;5.45;68.57
73105;BME280;61296;50.526;30.792;2024-03-02T14:01:43;99892.50;;;5.26;65.84
73105;BME280;61296;50.526;30.792;2024-03-02T14:17:19;99818.09;;;4.75;68.08
73105;BME280;61296;50.526;30.792;2024-03-02T14:32:52;99944.81;;;5.49;70.12
73105;BME280;61296;50.526;30.792;2024-03-02T14:48:25;99929.91;;;5.17;71.73
73105;BME280;61296;50.526;30.792;2024-03-02T15:03:58;99917.63;;;5.11;71.13
73105;BME280;61296;50.526;30.792;2024-03-02T15:19:31;99901.81;;;4.96;71.98
73105;BME280;61296;50.526;30.792;2024-03-02T15:35:05;99907.84;;;4.80;74.79
73105;BME280;61296;50.526;30.792;2024-03-02T15:50:39;99911.38;;;4.72;75.97
73105;BME280;61296;50.526;30.792;2024-03-02T16:06:12;99891.94;;;4.35;76.78
73105;BME280;61296;50.526;30.792;2024-03-02T16:21:38;99807.72;;;3.75;76.33
73105;BME280;61296;50.526;30.792;2024-03-02T16:37:11;99891.22;;;4.18;76.97
73105;BME280;61296;50.526;30.792;2024-03-02T16:52:44;99876.19;;;3.94;76.36
73105;BME280;61296;50.526;30.792;2024-03-02T17:08:17;99922.75;;;4.10;75.93
73105;BME280;61296;50.526;30.792;2024-03-02T17:23:50;99892.69;;;3.89;76.76
73105;BME280;61296;50.526;30.792;2024-03-02T17:39:23;99909.69;;;3.78;81.66
73105;BME280;61296;50.526;30.792;2024-03-02T17:54:56;99838.78;;;3.05;85.25
73105;BME280;61296;50.526;30.792;2024-03-02T18:10:29;99843.06;;;2.88;88.10
73105;BME280;61296;50.526;30.792;2024-03-02T18:26:02;99907.34;;;3.10;90.47
73105;BME280;61296;50.526;30.792;2024-03-02T18:41:35;99885.09;;;2.82;91.52
73105;BME280;61296;50.526;30.792;2024-03-02T18:57:08;99878.75;;;2.56;93.99
73105;BME280;61296;50.526;30.792;2024-03-02T19:12:42;99803.91;;;1.93;95.00
73105;BME280;61296;50.526;30.792;2024-03-02T19:28:15;99877.31;;;2.27;96.24
73105;BME280;61296;50.526;30.792;2024-03-02T19:43:48;99856.47;;;2.06;96.66
73105;BME280;61296;50.526;30.792;2024-03-02T19:59:22;99853.34;;;1.90;97.86
73105;BME280;61296;50.526;30.792;2024-03-02T20:14:55;99805.31;;;1.37;99.16
73105;BME280;61296;50.526;30.792;2024-03-02T20:30:28;99852.50;;;1.58;100.00
73105;BME280;61296;50.526;30.792;2024-03-02T20:46:01;99839.59;;;1.41;100.00
73105;BME280;61296;50.526;30.792;2024-03-02T21:01:39;99730.91;;;0.62;100.00
73105;BME280;61296;50.526;30.792;2024-03-02T21:17:13;99817.97;;;1.05;100.00
73105;BME280;61296;50.526;30.792;2024-03-02T21:32:41;99817.81;;;1.10;100.00
73105;BME280;61296;50.526;30.792;2024-03-02T21:48:15;99823.06;;;0.93;100.00
73105;BME280;61296;50.526;30.792;2024-03-02T22:03:48;99817.88;;;0.97;100.00
73105;BME280;61296;50.526;30.792;2024-03-02T22:19:23;99829.59;;;0.92;100.00
73105;BME280;61296;50.526;30.792;2024-03-02T22:34:56;99695.63;;;0.04;100.00
73105;BME280;61296;50.526;30.792;2024-03-02T22:50:29;99702.03;;;-0.06;100.00
73105;BME280;61296;50.526;30.792;2024-03-02T23:06:05;99697.53;;;-0.24;100.00
73105;BME280;61296;50.526;30.792;2024-03-02T23:21:37;99799.41;;;0.35;100.00
73105;BME280;61296;50.526;30.792;2024-03-02T23:37:04;99663.25;;;-0.70;100.00
73105;BME280;61296;50.526;30.792;2024-03-02T23:52:36;99684.25;;;-0.67;100.00
